Warminster, Pennsylvania
Current Conditions -  °F | °C
As of 7:54 AM on Thursday 18 Dec 2014 (Local Time) from KPNE Reporting Station
Overcast Overcast  
Wind Chill: 29°   Ceiling: 3800
Heat Index: 36°   Visibility: 10mi
Dew Point: 19°   Wind: 9mph
Humidity: 50%   Direction: 250°WSW
Pressure: 30.06"   Gusts: NA
Location:  40.18°N, 75.07°W
Report Text: KPNE 181254Z AUTO 25008KT 10SM OVC038 02/M07 A3006 RMK AO2 SLP179 T00221072 TSNO $
Loading
Personal Weather Stations






























Interactive Weather Map New forecast layout! Learn more

10-Day Weather Forecast

Advertisements
Track Severe Weather on mobile